sensor_id;sensor_type;location;lat;lon;timestamp;P1;durP1;ratioP1;P2;durP2;ratioP2
28627;SDS011;15815;46.760;19.604;2023-09-19T00:00:49;2.63;;;1.92;;
28627;SDS011;15815;46.760;19.604;2023-09-19T00:03:15;3.03;;;2.00;;
28627;SDS011;15815;46.760;19.604;2023-09-19T00:05:41;5.72;;;2.30;;
28627;SDS011;15815;46.760;19.604;2023-09-19T00:08:06;3.70;;;2.30;;
28627;SDS011;15815;46.760;19.604;2023-09-19T00:10:32;5.70;;;2.53;;
28627;SDS011;15815;46.760;19.604;2023-09-19T00:12:58;3.78;;;2.45;;
28627;SDS011;15815;46.760;19.604;2023-09-19T00:15:24;3.22;;;2.05;;
28627;SDS011;15815;46.760;19.604;2023-09-19T00:17:51;2.22;;;2.00;;
28627;SDS011;15815;46.760;19.604;2023-09-19T00:20:17;3.58;;;2.38;;
28627;SDS011;15815;46.760;19.604;2023-09-19T00:22:43;7.47;;;2.42;;
28627;SDS011;15815;46.760;19.604;2023-09-19T00:25:08;3.90;;;2.20;;
28627;SDS011;15815;46.760;19.604;2023-09-19T00:27:34;4.93;;;2.40;;
28627;SDS011;15815;46.760;19.604;2023-09-19T00:29:59;2.88;;;2.25;;
28627;SDS011;15815;46.760;19.604;2023-09-19T00:32:25;3.53;;;2.58;;
28627;SDS011;15815;46.760;19.604;2023-09-19T00:34:50;3.10;;;2.50;;
28627;SDS011;15815;46.760;19.604;2023-09-19T00:37:16;13.50;;;2.45;;
28627;SDS011;15815;46.760;19.604;2023-09-19T00:39:41;3.90;;;2.20;;
28627;SDS011;15815;46.760;19.604;2023-09-19T00:42:07;5.68;;;2.63;;
28627;SDS011;15815;46.760;19.604;2023-09-19T00:44:32;6.32;;;2.10;;
28627;SDS011;15815;46.760;19.604;2023-09-19T00:46:58;5.20;;;2.58;;
28627;SDS011;15815;46.760;19.604;2023-09-19T00:49:23;3.05;;;2.10;;
28627;SDS011;15815;46.760;19.604;2023-09-19T00:51:49;2.90;;;2.15;;
28627;SDS011;15815;46.760;19.604;2023-09-19T00:54:15;3.10;;;1.83;;
28627;SDS011;15815;46.760;19.604;2023-09-19T00:56:41;4.10;;;2.30;;
28627;SDS011;15815;46.760;19.604;2023-09-19T00:59:07;3.80;;;2.30;;
28627;SDS011;15815;46.760;19.604;2023-09-19T01:01:33;2.90;;;2.45;;
28627;SDS011;15815;46.760;19.604;2023-09-19T01:03:58;8.73;;;2.42;;
28627;SDS011;15815;46.760;19.604;2023-09-19T01:06:27;4.05;;;2.42;;
28627;SDS011;15815;46.760;19.604;2023-09-19T01:08:53;9.10;;;2.42;;
28627;SDS011;15815;46.760;19.604;2023-09-19T01:11:25;3.47;;;2.08;;
28627;SDS011;15815;46.760;19.604;2023-09-19T01:14:03;3.40;;;2.50;;
28627;SDS011;15815;46.760;19.604;2023-09-19T01:22:13;6.55;;;2.35;;
28627;SDS011;15815;46.760;19.604;2023-09-19T01:30:14;2.60;;;2.00;;
28627;SDS011;15815;46.760;19.604;2023-09-19T01:32:45;3.97;;;2.60;;
28627;SDS011;15815;46.760;19.604;2023-09-19T01:35:10;2.42;;;2.00;;
28627;SDS011;15815;46.760;19.604;2023-09-19T01:37:36;2.85;;;2.45;;
28627;SDS011;15815;46.760;19.604;2023-09-19T01:40:02;3.42;;;2.33;;
28627;SDS011;15815;46.760;19.604;2023-09-19T01:42:42;2.70;;;2.22;;
28627;SDS011;15815;46.760;19.604;2023-09-19T01:50:32;3.15;;;2.28;;
28627;SDS011;15815;46.760;19.604;2023-09-19T01:53:56;4.03;;;2.50;;
28627;SDS011;15815;46.760;19.604;2023-09-19T01:55:55;3.30;;;2.10;;
28627;SDS011;15815;46.760;19.604;2023-09-19T02:01:10;3.47;;;2.30;;
28627;SDS011;15815;46.760;19.604;2023-09-19T02:03:37;3.08;;;2.20;;
28627;SDS011;15815;46.760;19.604;2023-09-19T02:06:04;4.45;;;2.60;;
28627;SDS011;15815;46.760;19.604;2023-09-19T02:08:30;5.95;;;2.60;;
28627;SDS011;15815;46.760;19.604;2023-09-19T02:10:56;4.90;;;3.30;;
28627;SDS011;15815;46.760;19.604;2023-09-19T02:13:22;7.13;;;2.38;;
28627;SDS011;15815;46.760;19.604;2023-09-19T02:15:48;4.30;;;2.22;;
28627;SDS011;15815;46.760;19.604;2023-09-19T02:18:16;11.27;;;2.60;;
28627;SDS011;15815;46.760;19.604;2023-09-19T02:20:41;5.22;;;2.58;;
28627;SDS011;15815;46.760;19.604;2023-09-19T02:23:07;2.53;;;2.00;;
28627;SDS011;15815;46.760;19.604;2023-09-19T02:25:32;3.15;;;2.28;;
28627;SDS011;15815;46.760;19.604;2023-09-19T02:27:58;3.42;;;2.63;;
28627;SDS011;15815;46.760;19.604;2023-09-19T02:30:24;4.50;;;2.67;;
28627;SDS011;15815;46.760;19.604;2023-09-19T02:32:50;3.00;;;2.05;;
28627;SDS011;15815;46.760;19.604;2023-09-19T02:35:15;4.05;;;2.05;;
28627;SDS011;15815;46.760;19.604;2023-09-19T02:37:41;3.50;;;2.28;;
28627;SDS011;15815;46.760;19.604;2023-09-19T02:40:06;3.63;;;2.13;;
28627;SDS011;15815;46.760;19.604;2023-09-19T02:42:32;4.47;;;2.58;;
28627;SDS011;15815;46.760;19.604;2023-09-19T02:44:58;3.05;;;2.40;;
28627;SDS011;15815;46.760;19.604;2023-09-19T02:47:23;4.93;;;2.60;;
28627;SDS011;15815;46.760;19.604;2023-09-19T02:49:49;7.45;;;2.33;;
28627;SDS011;15815;46.760;19.604;2023-09-19T02:52:14;3.17;;;2.50;;
28627;SDS011;15815;46.760;19.604;2023-09-19T02:54:40;3.53;;;2.75;;
28627;SDS011;15815;46.760;19.604;2023-09-19T02:57:05;5.03;;;2.55;;
28627;SDS011;15815;46.760;19.604;2023-09-19T02:59:32;3.83;;;2.70;;
28627;SDS011;15815;46.760;19.604;2023-09-19T03:01:58;4.13;;;3.03;;
28627;SDS011;15815;46.760;19.604;2023-09-19T03:04:23;3.33;;;2.47;;
28627;SDS011;15815;46.760;19.604;2023-09-19T03:06:48;4.65;;;2.92;;
28627;SDS011;15815;46.760;19.604;2023-09-19T03:09:14;4.30;;;2.45;;
28627;SDS011;15815;46.760;19.604;2023-09-19T03:11:39;3.60;;;2.75;;
28627;SDS011;15815;46.760;19.604;2023-09-19T03:14:05;4.90;;;3.03;;
28627;SDS011;15815;46.760;19.604;2023-09-19T03:16:31;4.65;;;2.45;;
28627;SDS011;15815;46.760;19.604;2023-09-19T03:18:56;5.72;;;2.72;;
28627;SDS011;15815;46.760;19.604;2023-09-19T03:21:21;3.92;;;2.78;;
28627;SDS011;15815;46.760;19.604;2023-09-19T03:23:47;3.35;;;2.50;;
28627;SDS011;15815;46.760;19.604;2023-09-19T03:26:13;4.28;;;2.78;;
28627;SDS011;15815;46.760;19.604;2023-09-19T03:28:38;4.30;;;2.38;;
28627;SDS011;15815;46.760;19.604;2023-09-19T03:31:05;4.38;;;2.22;;
28627;SDS011;15815;46.760;19.604;2023-09-19T03:33:31;4.00;;;2.42;;
28627;SDS011;15815;46.760;19.604;2023-09-19T03:35:57;4.35;;;2.97;;
28627;SDS011;15815;46.760;19.604;2023-09-19T03:38:22;5.80;;;2.70;;
28627;SDS011;15815;46.760;19.604;2023-09-19T03:40:48;5.03;;;2.58;;
28627;SDS011;15815;46.760;19.604;2023-09-19T03:43:13;5.43;;;3.17;;
28627;SDS011;15815;46.760;19.604;2023-09-19T03:45:39;7.53;;;3.17;;
28627;SDS011;15815;46.760;19.604;2023-09-19T03:48:11;5.47;;;2.88;;
28627;SDS011;15815;46.760;19.604;2023-09-19T03:53:04;5.60;;;2.88;;
28627;SDS011;15815;46.760;19.604;2023-09-19T03:55:30;4.00;;;2.60;;
28627;SDS011;15815;46.760;19.604;2023-09-19T03:57:56;4.47;;;2.75;;
28627;SDS011;15815;46.760;19.604;2023-09-19T04:00:21;4.07;;;2.72;;
28627;SDS011;15815;46.760;19.604;2023-09-19T04:02:48;4.53;;;2.85;;
28627;SDS011;15815;46.760;19.604;2023-09-19T04:05:16;4.15;;;2.50;;
28627;SDS011;15815;46.760;19.604;2023-09-19T04:07:42;4.03;;;2.67;;
28627;SDS011;15815;46.760;19.604;2023-09-19T04:10:07;3.28;;;2.30;;
28627;SDS011;15815;46.760;19.604;2023-09-19T04:12:33;4.32;;;2.72;;
28627;SDS011;15815;46.760;19.604;2023-09-19T04:14:59;4.07;;;2.50;;
28627;SDS011;15815;46.760;19.604;2023-09-19T04:17:24;5.65;;;2.85;;
28627;SDS011;15815;46.760;19.604;2023-09-19T04:19:50;4.60;;;2.40;;
28627;SDS011;15815;46.760;19.604;2023-09-19T04:22:15;4.88;;;3.00;;
28627;SDS011;15815;46.760;19.604;2023-09-19T04:24:41;4.93;;;2.80;;
28627;SDS011;15815;46.760;19.604;2023-09-19T04:27:06;8.55;;;2.33;;
28627;SDS011;15815;46.760;19.604;2023-09-19T04:29:32;5.10;;;2.90;;
28627;SDS011;15815;46.760;19.604;2023-09-19T04:31:57;5.95;;;2.60;;
28627;SDS011;15815;46.760;19.604;2023-09-19T04:34:23;5.03;;;2.53;;
28627;SDS011;15815;46.760;19.604;2023-09-19T04:36:48;5.65;;;2.40;;
28627;SDS011;15815;46.760;19.604;2023-09-19T04:39:14;6.40;;;2.95;;
28627;SDS011;15815;46.760;19.604;2023-09-19T04:41:39;4.15;;;2.50;;
28627;SDS011;15815;46.760;19.604;2023-09-19T04:44:05;5.00;;;2.35;;
28627;SDS011;15815;46.760;19.604;2023-09-19T04:46:30;3.67;;;2.50;;
28627;SDS011;15815;46.760;19.604;2023-09-19T04:48:56;4.28;;;2.25;;
28627;SDS011;15815;46.760;19.604;2023-09-19T04:51:21;4.82;;;2.90;;
28627;SDS011;15815;46.760;19.604;2023-09-19T04:53:47;4.22;;;2.95;;
28627;SDS011;15815;46.760;19.604;2023-09-19T04:56:12;2.72;;;2.17;;
28627;SDS011;15815;46.760;19.604;2023-09-19T04:58:38;4.78;;;2.58;;
28627;SDS011;15815;46.760;19.604;2023-09-19T05:01:04;4.10;;;2.72;;
28627;SDS011;15815;46.760;19.604;2023-09-19T05:03:30;5.13;;;2.70;;
28627;SDS011;15815;46.760;19.604;2023-09-19T05:05:55;5.70;;;2.60;;
28627;SDS011;15815;46.760;19.604;2023-09-19T05:08:21;4.25;;;2.72;;
28627;SDS011;15815;46.760;19.604;2023-09-19T05:10:46;3.40;;;2.42;;
28627;SDS011;15815;46.760;19.604;2023-09-19T05:13:12;3.80;;;2.80;;
28627;SDS011;15815;46.760;19.604;2023-09-19T05:15:40;6.93;;;2.90;;
28627;SDS011;15815;46.760;19.604;2023-09-19T05:18:06;4.00;;;2.47;;
28627;SDS011;15815;46.760;19.604;2023-09-19T05:20:32;4.75;;;2.40;;
28627;SDS011;15815;46.760;19.604;2023-09-19T05:23:01;5.50;;;2.67;;
28627;SDS011;15815;46.760;19.604;2023-09-19T05:25:33;5.75;;;2.55;;
28627;SDS011;15815;46.760;19.604;2023-09-19T05:28:00;5.65;;;2.35;;
28627;SDS011;15815;46.760;19.604;2023-09-19T05:30:26;3.05;;;2.45;;
28627;SDS011;15815;46.760;19.604;2023-09-19T05:32:51;5.53;;;2.95;;
28627;SDS011;15815;46.760;19.604;2023-09-19T05:35:17;4.13;;;2.70;;
28627;SDS011;15815;46.760;19.604;2023-09-19T05:37:42;9.45;;;2.83;;
28627;SDS011;15815;46.760;19.604;2023-09-19T05:40:08;4.18;;;2.45;;
28627;SDS011;15815;46.760;19.604;2023-09-19T05:42:34;3.92;;;2.65;;
28627;SDS011;15815;46.760;19.604;2023-09-19T05:44:59;7.50;;;3.15;;
28627;SDS011;15815;46.760;19.604;2023-09-19T05:47:25;6.57;;;2.70;;
28627;SDS011;15815;46.760;19.604;2023-09-19T05:49:50;3.92;;;2.90;;
28627;SDS011;15815;46.760;19.604;2023-09-19T05:52:16;4.30;;;2.80;;
28627;SDS011;15815;46.760;19.604;2023-09-19T05:54:41;4.97;;;2.75;;
28627;SDS011;15815;46.760;19.604;2023-09-19T05:57:07;6.70;;;2.67;;
28627;SDS011;15815;46.760;19.604;2023-09-19T05:59:32;4.47;;;2.58;;
28627;SDS011;15815;46.760;19.604;2023-09-19T06:01:57;8.63;;;2.83;;
28627;SDS011;15815;46.760;19.604;2023-09-19T06:04:23;4.45;;;2.88;;
28627;SDS011;15815;46.760;19.604;2023-09-19T06:06:49;5.47;;;3.10;;
28627;SDS011;15815;46.760;19.604;2023-09-19T06:09:14;7.30;;;2.90;;
28627;SDS011;15815;46.760;19.604;2023-09-19T06:11:43;2.95;;;2.22;;
28627;SDS011;15815;46.760;19.604;2023-09-19T06:14:08;4.28;;;2.70;;
28627;SDS011;15815;46.760;19.604;2023-09-19T06:16:34;3.67;;;2.35;;
28627;SDS011;15815;46.760;19.604;2023-09-19T06:18:59;3.88;;;2.80;;
28627;SDS011;15815;46.760;19.604;2023-09-19T06:21:26;7.95;;;2.80;;
28627;SDS011;15815;46.760;19.604;2023-09-19T06:23:53;4.07;;;2.45;;
28627;SDS011;15815;46.760;19.604;2023-09-19T06:26:18;4.20;;;2.85;;
28627;SDS011;15815;46.760;19.604;2023-09-19T06:28:44;5.00;;;2.70;;
28627;SDS011;15815;46.760;19.604;2023-09-19T06:31:10;7.30;;;3.08;;
28627;SDS011;15815;46.760;19.604;2023-09-19T06:33:36;5.88;;;2.85;;
28627;SDS011;15815;46.760;19.604;2023-09-19T06:36:02;2.97;;;2.38;;
28627;SDS011;15815;46.760;19.604;2023-09-19T06:38:28;3.58;;;2.25;;
28627;SDS011;15815;46.760;19.604;2023-09-19T06:40:53;3.67;;;2.75;;
28627;SDS011;15815;46.760;19.604;2023-09-19T06:43:19;2.90;;;2.38;;
28627;SDS011;15815;46.760;19.604;2023-09-19T06:45:45;3.83;;;2.70;;
28627;SDS011;15815;46.760;19.604;2023-09-19T06:48:10;5.05;;;2.45;;
28627;SDS011;15815;46.760;19.604;2023-09-19T06:50:37;5.30;;;2.40;;
28627;SDS011;15815;46.760;19.604;2023-09-19T06:53:02;3.13;;;2.28;;
28627;SDS011;15815;46.760;19.604;2023-09-19T06:55:31;5.57;;;2.50;;
28627;SDS011;15815;46.760;19.604;2023-09-19T06:57:57;3.90;;;2.63;;
28627;SDS011;15815;46.760;19.604;2023-09-19T07:00:22;3.05;;;2.15;;
28627;SDS011;15815;46.760;19.604;2023-09-19T07:03:21;3.17;;;2.58;;
28627;SDS011;15815;46.760;19.604;2023-09-19T07:05:40;4.20;;;2.40;;
28627;SDS011;15815;46.760;19.604;2023-09-19T07:08:06;5.38;;;2.45;;
28627;SDS011;15815;46.760;19.604;2023-09-19T07:10:33;6.57;;;2.78;;
28627;SDS011;15815;46.760;19.604;2023-09-19T07:13:05;7.22;;;3.05;;
28627;SDS011;15815;46.760;19.604;2023-09-19T07:15:32;4.00;;;2.35;;
28627;SDS011;15815;46.760;19.604;2023-09-19T07:17:58;5.65;;;2.72;;
28627;SDS011;15815;46.760;19.604;2023-09-19T07:20:24;5.47;;;2.90;;
28627;SDS011;15815;46.760;19.604;2023-09-19T07:22:50;3.40;;;2.75;;
28627;SDS011;15815;46.760;19.604;2023-09-19T07:25:15;4.70;;;2.80;;
28627;SDS011;15815;46.760;19.604;2023-09-19T07:27:42;4.38;;;2.90;;
28627;SDS011;15815;46.760;19.604;2023-09-19T07:30:08;4.93;;;2.95;;
28627;SDS011;15815;46.760;19.604;2023-09-19T07:32:34;5.43;;;3.20;;
28627;SDS011;15815;46.760;19.604;2023-09-19T07:34:59;5.40;;;3.53;;
28627;SDS011;15815;46.760;19.604;2023-09-19T07:37:25;5.18;;;3.30;;
28627;SDS011;15815;46.760;19.604;2023-09-19T07:39:51;4.43;;;3.40;;
28627;SDS011;15815;46.760;19.604;2023-09-19T07:42:16;5.75;;;3.58;;
28627;SDS011;15815;46.760;19.604;2023-09-19T07:44:42;4.88;;;3.42;;
28627;SDS011;15815;46.760;19.604;2023-09-19T07:47:07;2.10;;;1.80;;
28627;SDS011;15815;46.760;19.604;2023-09-19T07:49:33;0.80;;;0.57;;
28627;SDS011;15815;46.760;19.604;2023-09-19T07:51:58;2.50;;;0.70;;
28627;SDS011;15815;46.760;19.604;2023-09-19T07:54:26;0.60;;;0.30;;
28627;SDS011;15815;46.760;19.604;2023-09-19T07:56:52;0.60;;;0.30;;
28627;SDS011;15815;46.760;19.604;2023-09-19T07:59:17;0.52;;;0.40;;
28627;SDS011;15815;46.760;19.604;2023-09-19T08:01:43;1.35;;;0.63;;
28627;SDS011;15815;46.760;19.604;2023-09-19T08:04:09;1.50;;;0.32;;
28627;SDS011;15815;46.760;19.604;2023-09-19T08:06:34;0.17;;;0.17;;
28627;SDS011;15815;46.760;19.604;2023-09-19T08:09:00;0.85;;;0.40;;
28627;SDS011;15815;46.760;19.604;2023-09-19T08:11:25;1.52;;;0.63;;
28627;SDS011;15815;46.760;19.604;2023-09-19T08:13:50;0.75;;;0.25;;
28627;SDS011;15815;46.760;19.604;2023-09-19T08:16:16;2.40;;;0.45;;
28627;SDS011;15815;46.760;19.604;2023-09-19T08:18:41;1.20;;;0.38;;
28627;SDS011;15815;46.760;19.604;2023-09-19T08:21:07;0.63;;;0.30;;
28627;SDS011;15815;46.760;19.604;2023-09-19T08:23:33;2.50;;;0.40;;
28627;SDS011;15815;46.760;19.604;2023-09-19T08:25:58;0.40;;;0.40;;
28627;SDS011;15815;46.760;19.604;2023-09-19T08:28:24;0.75;;;0.20;;
28627;SDS011;15815;46.760;19.604;2023-09-19T08:30:50;0.20;;;0.20;;
28627;SDS011;15815;46.760;19.604;2023-09-19T08:33:16;0.65;;;0.30;;
28627;SDS011;15815;46.760;19.604;2023-09-19T08:35:42;0.95;;;0.30;;
28627;SDS011;15815;46.760;19.604;2023-09-19T08:38:07;0.90;;;0.30;;
28627;SDS011;15815;46.760;19.604;2023-09-19T08:40:36;1.60;;;0.38;;
28627;SDS011;15815;46.760;19.604;2023-09-19T08:43:02;0.65;;;0.20;;
28627;SDS011;15815;46.760;19.604;2023-09-19T08:45:30;1.48;;;0.30;;
28627;SDS011;15815;46.760;19.604;2023-09-19T08:50:55;0.10;;;0.10;;
28627;SDS011;15815;46.760;19.604;2023-09-19T08:56:31;2.80;;;0.32;;
28627;SDS011;15815;46.760;19.604;2023-09-19T08:58:59;0.28;;;0.20;;
28627;SDS011;15815;46.760;19.604;2023-09-19T09:01:28;0.50;;;0.25;;
28627;SDS011;15815;46.760;19.604;2023-09-19T09:03:58;0.52;;;0.28;;
28627;SDS011;15815;46.760;19.604;2023-09-19T09:06:25;0.20;;;0.20;;
28627;SDS011;15815;46.760;19.604;2023-09-19T09:08:51;0.30;;;0.30;;
28627;SDS011;15815;46.760;19.604;2023-09-19T09:11:20;0.35;;;0.25;;
28627;SDS011;15815;46.760;19.604;2023-09-19T09:13:46;0.32;;;0.30;;
28627;SDS011;15815;46.760;19.604;2023-09-19T09:16:13;0.80;;;0.40;;
28627;SDS011;15815;46.760;19.604;2023-09-19T09:18:40;0.28;;;0.28;;
28627;SDS011;15815;46.760;19.604;2023-09-19T09:21:05;1.63;;;0.57;;
28627;SDS011;15815;46.760;19.604;2023-09-19T09:23:31;0.45;;;0.30;;
28627;SDS011;15815;46.760;19.604;2023-09-19T09:25:58;1.00;;;0.57;;
28627;SDS011;15815;46.760;19.604;2023-09-19T09:28:26;1.70;;;0.50;;
28627;SDS011;15815;46.760;19.604;2023-09-19T09:30:52;0.45;;;0.40;;
28627;SDS011;15815;46.760;19.604;2023-09-19T09:33:18;1.42;;;0.47;;
28627;SDS011;15815;46.760;19.604;2023-09-19T09:35:57;1.17;;;0.57;;
28627;SDS011;15815;46.760;19.604;2023-09-19T09:38:24;0.60;;;0.30;;
28627;SDS011;15815;46.760;19.604;2023-09-19T09:40:51;0.60;;;0.60;;
28627;SDS011;15815;46.760;19.604;2023-09-19T09:43:25;1.45;;;0.30;;
28627;SDS011;15815;46.760;19.604;2023-09-19T09:48:42;0.82;;;0.47;;
28627;SDS011;15815;46.760;19.604;2023-09-19T09:51:08;0.55;;;0.40;;
28627;SDS011;15815;46.760;19.604;2023-09-19T09:53:33;0.57;;;0.38;;
28627;SDS011;15815;46.760;19.604;2023-09-19T09:58:38;0.98;;;0.43;;
28627;SDS011;15815;46.760;19.604;2023-09-19T10:01:15;0.40;;;0.40;;
28627;SDS011;15815;46.760;19.604;2023-09-19T10:03:40;0.90;;;0.50;;
28627;SDS011;15815;46.760;19.604;2023-09-19T10:06:14;2.75;;;0.52;;
28627;SDS011;15815;46.760;19.604;2023-09-19T10:08:46;0.90;;;0.40;;
28627;SDS011;15815;46.760;19.604;2023-09-19T10:11:26;0.60;;;0.30;;
28627;SDS011;15815;46.760;19.604;2023-09-19T10:13:52;1.13;;;0.47;;
28627;SDS011;15815;46.760;19.604;2023-09-19T10:16:17;0.50;;;0.22;;
28627;SDS011;15815;46.760;19.604;2023-09-19T10:18:43;0.38;;;0.38;;
28627;SDS011;15815;46.760;19.604;2023-09-19T10:21:15;0.50;;;0.20;;
28627;SDS011;15815;46.760;19.604;2023-09-19T10:23:43;1.65;;;0.40;;
28627;SDS011;15815;46.760;19.604;2023-09-19T10:26:10;0.40;;;0.30;;
28627;SDS011;15815;46.760;19.604;2023-09-19T10:28:36;0.40;;;0.30;;
28627;SDS011;15815;46.760;19.604;2023-09-19T10:31:04;0.63;;;0.40;;
28627;SDS011;15815;46.760;19.604;2023-09-19T10:33:33;2.38;;;0.40;;
28627;SDS011;15815;46.760;19.604;2023-09-19T10:36:05;1.10;;;0.55;;
28627;SDS011;15815;46.760;19.604;2023-09-19T10:38:31;1.00;;;0.50;;
28627;SDS011;15815;46.760;19.604;2023-09-19T10:40:58;0.30;;;0.30;;
28627;SDS011;15815;46.760;19.604;2023-09-19T10:43:26;0.50;;;0.35;;
28627;SDS011;15815;46.760;19.604;2023-09-19T10:45:55;0.70;;;0.30;;
28627;SDS011;15815;46.760;19.604;2023-09-19T10:48:28;1.27;;;0.40;;
28627;SDS011;15815;46.760;19.604;2023-09-19T10:53:46;2.83;;;1.05;;
28627;SDS011;15815;46.760;19.604;2023-09-19T10:56:36;0.40;;;0.30;;
28627;SDS011;15815;46.760;19.604;2023-09-19T10:59:12;0.55;;;0.40;;
28627;SDS011;15815;46.760;19.604;2023-09-19T11:01:41;0.63;;;0.45;;
28627;SDS011;15815;46.760;19.604;2023-09-19T11:04:20;0.80;;;0.45;;
28627;SDS011;15815;46.760;19.604;2023-09-19T11:06:59;0.30;;;0.30;;
28627;SDS011;15815;46.760;19.604;2023-09-19T11:14:54;0.60;;;0.50;;
28627;SDS011;15815;46.760;19.604;2023-09-19T11:30:32;3.03;;;0.40;;
28627;SDS011;15815;46.760;19.604;2023-09-19T11:33:17;0.75;;;0.35;;
28627;SDS011;15815;46.760;19.604;2023-09-19T11:35:58;1.35;;;0.30;;
28627;SDS011;15815;46.760;19.604;2023-09-19T11:43:45;1.13;;;0.32;;
28627;SDS011;15815;46.760;19.604;2023-09-19T11:46:11;0.75;;;0.45;;
28627;SDS011;15815;46.760;19.604;2023-09-19T11:48:40;1.42;;;0.28;;
28627;SDS011;15815;46.760;19.604;2023-09-19T11:51:10;3.20;;;0.40;;
28627;SDS011;15815;46.760;19.604;2023-09-19T11:53:36;1.30;;;0.43;;
28627;SDS011;15815;46.760;19.604;2023-09-19T11:56:11;2.80;;;0.55;;
28627;SDS011;15815;46.760;19.604;2023-09-19T11:58:37;0.57;;;0.47;;
28627;SDS011;15815;46.760;19.604;2023-09-19T12:01:03;2.78;;;0.30;;
28627;SDS011;15815;46.760;19.604;2023-09-19T12:03:30;1.20;;;0.40;;
28627;SDS011;15815;46.760;19.604;2023-09-19T12:05:57;2.40;;;0.30;;
28627;SDS011;15815;46.760;19.604;2023-09-19T12:08:24;0.30;;;0.30;;
28627;SDS011;15815;46.760;19.604;2023-09-19T12:10:50;0.70;;;0.40;;
28627;SDS011;15815;46.760;19.604;2023-09-19T12:13:19;0.70;;;0.47;;
28627;SDS011;15815;46.760;19.604;2023-09-19T12:15:45;0.55;;;0.50;;
28627;SDS011;15815;46.760;19.604;2023-09-19T12:18:25;0.40;;;0.32;;
28627;SDS011;15815;46.760;19.604;2023-09-19T12:20:52;0.90;;;0.28;;
28627;SDS011;15815;46.760;19.604;2023-09-19T12:23:17;1.27;;;0.40;;
28627;SDS011;15815;46.760;19.604;2023-09-19T12:25:43;2.13;;;0.50;;
28627;SDS011;15815;46.760;19.604;2023-09-19T12:28:08;1.90;;;0.40;;
28627;SDS011;15815;46.760;19.604;2023-09-19T12:30:34;0.65;;;0.32;;
28627;SDS011;15815;46.760;19.604;2023-09-19T12:33:00;0.90;;;0.38;;
28627;SDS011;15815;46.760;19.604;2023-09-19T12:35:32;0.38;;;0.30;;
28627;SDS011;15815;46.760;19.604;2023-09-19T12:37:58;0.50;;;0.50;;
28627;SDS011;15815;46.760;19.604;2023-09-19T12:40:24;2.90;;;0.45;;
28627;SDS011;15815;46.760;19.604;2023-09-19T12:42:50;0.98;;;0.50;;
28627;SDS011;15815;46.760;19.604;2023-09-19T12:45:17;0.38;;;0.30;;
28627;SDS011;15815;46.760;19.604;2023-09-19T12:50:59;0.40;;;0.40;;
28627;SDS011;15815;46.760;19.604;2023-09-19T12:53:27;0.50;;;0.50;;
28627;SDS011;15815;46.760;19.604;2023-09-19T12:55:59;0.75;;;0.57;;
28627;SDS011;15815;46.760;19.604;2023-09-19T12:58:25;1.05;;;0.50;;
28627;SDS011;15815;46.760;19.604;2023-09-19T13:00:51;0.75;;;0.40;;
28627;SDS011;15815;46.760;19.604;2023-09-19T13:05:47;1.50;;;0.40;;
28627;SDS011;15815;46.760;19.604;2023-09-19T13:08:26;0.70;;;0.30;;
28627;SDS011;15815;46.760;19.604;2023-09-19T13:11:04;1.20;;;0.40;;
28627;SDS011;15815;46.760;19.604;2023-09-19T13:13:44;0.70;;;0.50;;
28627;SDS011;15815;46.760;19.604;2023-09-19T13:16:11;0.65;;;0.50;;
28627;SDS011;15815;46.760;19.604;2023-09-19T13:18:44;2.95;;;0.57;;
28627;SDS011;15815;46.760;19.604;2023-09-19T13:21:10;1.10;;;0.68;;
28627;SDS011;15815;46.760;19.604;2023-09-19T13:23:39;0.82;;;0.45;;
28627;SDS011;15815;46.760;19.604;2023-09-19T13:26:05;0.60;;;0.40;;
28627;SDS011;15815;46.760;19.604;2023-09-19T13:28:30;1.55;;;0.68;;
28627;SDS011;15815;46.760;19.604;2023-09-19T13:30:56;1.08;;;0.40;;
28627;SDS011;15815;46.760;19.604;2023-09-19T13:33:22;1.00;;;0.50;;
28627;SDS011;15815;46.760;19.604;2023-09-19T13:35:47;1.58;;;0.52;;
28627;SDS011;15815;46.760;19.604;2023-09-19T13:38:13;0.80;;;0.40;;
28627;SDS011;15815;46.760;19.604;2023-09-19T13:40:39;1.52;;;0.40;;
28627;SDS011;15815;46.760;19.604;2023-09-19T13:43:05;1.20;;;0.38;;
28627;SDS011;15815;46.760;19.604;2023-09-19T13:45:31;0.45;;;0.45;;
28627;SDS011;15815;46.760;19.604;2023-09-19T13:47:57;1.98;;;0.52;;
28627;SDS011;15815;46.760;19.604;2023-09-19T13:50:22;0.50;;;0.40;;
28627;SDS011;15815;46.760;19.604;2023-09-19T13:52:48;0.43;;;0.43;;
28627;SDS011;15815;46.760;19.604;2023-09-19T13:55:14;0.60;;;0.47;;
28627;SDS011;15815;46.760;19.604;2023-09-19T13:57:40;2.00;;;0.30;;
28627;SDS011;15815;46.760;19.604;2023-09-19T14:00:06;0.65;;;0.40;;
28627;SDS011;15815;46.760;19.604;2023-09-19T14:02:32;0.63;;;0.40;;
28627;SDS011;15815;46.760;19.604;2023-09-19T14:04:57;1.00;;;0.40;;
28627;SDS011;15815;46.760;19.604;2023-09-19T14:07:23;1.85;;;0.35;;
28627;SDS011;15815;46.760;19.604;2023-09-19T14:09:48;0.55;;;0.40;;
28627;SDS011;15815;46.760;19.604;2023-09-19T14:12:14;0.60;;;0.40;;
28627;SDS011;15815;46.760;19.604;2023-09-19T14:14:40;1.58;;;0.43;;
28627;SDS011;15815;46.760;19.604;2023-09-19T14:17:05;0.30;;;0.30;;
28627;SDS011;15815;46.760;19.604;2023-09-19T14:19:31;1.73;;;0.38;;
28627;SDS011;15815;46.760;19.604;2023-09-19T14:21:56;0.82;;;0.25;;
28627;SDS011;15815;46.760;19.604;2023-09-19T14:24:22;0.17;;;0.13;;
28627;SDS011;15815;46.760;19.604;2023-09-19T14:26:48;0.77;;;0.40;;
28627;SDS011;15815;46.760;19.604;2023-09-19T14:29:16;0.75;;;0.30;;
28627;SDS011;15815;46.760;19.604;2023-09-19T14:31:42;1.20;;;0.25;;
28627;SDS011;15815;46.760;19.604;2023-09-19T14:34:08;3.85;;;0.65;;
28627;SDS011;15815;46.760;19.604;2023-09-19T14:36:33;0.50;;;0.40;;
28627;SDS011;15815;46.760;19.604;2023-09-19T14:38:59;0.80;;;0.32;;
28627;SDS011;15815;46.760;19.604;2023-09-19T14:41:24;0.75;;;0.40;;
28627;SDS011;15815;46.760;19.604;2023-09-19T14:43:51;0.75;;;0.40;;
28627;SDS011;15815;46.760;19.604;2023-09-19T14:46:16;0.50;;;0.30;;
28627;SDS011;15815;46.760;19.604;2023-09-19T14:48:42;0.30;;;0.25;;
28627;SDS011;15815;46.760;19.604;2023-09-19T14:51:08;0.70;;;0.47;;
28627;SDS011;15815;46.760;19.604;2023-09-19T14:53:34;4.28;;;0.38;;
28627;SDS011;15815;46.760;19.604;2023-09-19T14:56:03;0.70;;;0.30;;
28627;SDS011;15815;46.760;19.604;2023-09-19T14:58:30;0.60;;;0.30;;
28627;SDS011;15815;46.760;19.604;2023-09-19T15:01:06;0.60;;;0.45;;
28627;SDS011;15815;46.760;19.604;2023-09-19T15:03:32;1.05;;;0.50;;
28627;SDS011;15815;46.760;19.604;2023-09-19T15:05:59;1.27;;;0.50;;
28627;SDS011;15815;46.760;19.604;2023-09-19T15:08:30;1.10;;;0.50;;
28627;SDS011;15815;46.760;19.604;2023-09-19T15:11:00;0.50;;;0.50;;
28627;SDS011;15815;46.760;19.604;2023-09-19T15:13:26;0.45;;;0.32;;
28627;SDS011;15815;46.760;19.604;2023-09-19T15:15:52;0.40;;;0.40;;
28627;SDS011;15815;46.760;19.604;2023-09-19T15:18:17;0.50;;;0.40;;
28627;SDS011;15815;46.760;19.604;2023-09-19T15:20:44;1.33;;;0.65;;
28627;SDS011;15815;46.760;19.604;2023-09-19T15:23:09;0.40;;;0.30;;
28627;SDS011;15815;46.760;19.604;2023-09-19T15:25:35;2.05;;;0.73;;
28627;SDS011;15815;46.760;19.604;2023-09-19T15:28:01;0.40;;;0.40;;
28627;SDS011;15815;46.760;19.604;2023-09-19T15:30:26;2.50;;;0.68;;
28627;SDS011;15815;46.760;19.604;2023-09-19T15:32:55;0.35;;;0.35;;
28627;SDS011;15815;46.760;19.604;2023-09-19T15:35:21;1.60;;;0.38;;
28627;SDS011;15815;46.760;19.604;2023-09-19T15:37:47;1.15;;;0.25;;